Time;durP1;ratioP1;P1;durP2;ratioP2;P2;SDS_P1;SDS_P2;PMS_P1;PMS_P2;Temp;Humidity;BMP_temperature;BMP_pressure;BME280_temperature;BME280_humidity;BME280_pressure;Samples;Min_cycle;Max_cycle;Signal;HPM_P1;HPM_P2
2021/01/05 00:03:00;;;;;;;26.00;15.33;;;4.80;81.60;;;;;;8318797;28;20217;-74
2021/01/05 00:07:17;;;;;;;23.60;14.80;;;4.70;81.70;;;;;;8313083;28;20595;-74
2021/01/05 00:11:18;;;;;;;20.67;13.97;;;4.80;81.90;;;;;;8312573;28;20471;-73
2021/01/05 00:15:19;;;;;;;23.60;14.53;;;4.70;81.60;;;;;;8306296;28;20468;-73
2021/01/05 00:19:21;;;;;;;21.20;13.90;;;4.70;81.70;;;;;;8314238;28;20666;-74
2021/01/05 00:23:22;;;;;;;18.00;12.33;;;4.70;81.60;;;;;;8306286;28;20453;-74
2021/01/05 00:27:26;;;;;;;18.47;13.13;;;4.70;81.50;;;;;;8292935;28;20508;-74
2021/01/05 00:31:27;;;;;;;22.10;12.90;;;4.80;81.90;;;;;;8302460;28;20193;-73
2021/01/05 00:35:31;;;;;;;19.43;13.40;;;4.80;81.80;;;;;;8309732;28;20485;-73
2021/01/05 00:39:36;;;;;;;21.43;13.37;;;4.80;81.50;;;;;;8311573;28;20195;-73
2021/01/05 00:43:38;;;;;;;20.20;13.60;;;4.80;81.50;;;;;;8308010;28;20559;-74
2021/01/05 00:47:40;;;;;;;19.87;12.47;;;4.80;81.50;;;;;;8303701;28;20460;-73
2021/01/05 00:51:40;;;;;;;26.47;14.83;;;4.80;81.40;;;;;;8311130;28;21021;-74
2021/01/05 00:55:46;;;;;;;22.70;13.50;;;4.90;81.50;;;;;;8303053;28;20448;-73
2021/01/05 00:59:58;;;;;;;20.37;12.50;;;4.90;81.90;;;;;;8309078;28;20229;-74
2021/01/05 01:03:59;;;;;;;21.40;13.60;;;4.90;81.70;;;;;;8308780;28;21269;-74
2021/01/05 01:08:01;;;;;;;24.87;15.73;;;4.90;81.80;;;;;;8314780;28;20835;-74
2021/01/05 01:12:18;;;;;;;20.73;13.83;;;4.90;81.70;;;;;;8290943;28;20631;-74
2021/01/05 01:16:24;;;;;;;24.30;12.63;;;4.90;81.80;;;;;;8305195;28;20445;-74
2021/01/05 01:20:24;;;;;;;23.20;14.37;;;4.90;82.00;;;;;;8310697;28;20991;-72
2021/01/05 01:24:28;;;;;;;21.30;13.40;;;4.90;81.70;;;;;;8312111;28;20993;-73
2021/01/05 01:28:32;;;;;;;19.53;12.53;;;4.90;81.70;;;;;;8305895;28;20249;-75
2021/01/05 01:32:34;;;;;;;20.10;12.47;;;4.90;82.00;;;;;;8304835;28;20487;-73
2021/01/05 01:36:35;;;;;;;17.53;12.60;;;4.90;82.00;;;;;;8293992;28;20506;-74
2021/01/05 01:40:40;;;;;;;19.00;12.27;;;4.90;81.80;;;;;;8299123;28;20508;-73
2021/01/05 01:44:43;;;;;;;22.00;14.10;;;4.90;81.60;;;;;;8309957;28;20466;-73
2021/01/05 01:48:51;;;;;;;26.67;14.23;;;4.90;81.70;;;;;;8305591;28;21015;-73
2021/01/05 01:53:22;;;;;;;20.07;13.97;;;4.80;81.90;;;;;;8320326;28;20832;-73
2021/01/05 01:57:40;;;;;;;21.83;13.97;;;4.80;82.10;;;;;;8311661;28;20468;-74
2021/01/05 02:02:00;;;;;;;20.87;13.23;;;4.80;82.30;;;;;;8301753;28;20453;-73
2021/01/05 02:06:43;;;;;;;26.47;15.60;;;4.80;82.40;;;;;;8313036;28;20472;-73
2021/01/05 02:11:15;;;;;;;22.73;14.77;;;4.80;82.40;;;;;;8306593;28;20462;-73
2021/01/05 02:15:40;;;;;;;35.00;17.10;;;4.80;82.30;;;;;;8303103;28;20445;-73
2021/01/05 02:19:57;;;;;;;25.60;15.50;;;4.80;82.40;;;;;;8316000;28;21269;-73
2021/01/05 02:24:06;;;;;;;26.30;16.20;;;4.80;82.80;;;;;;8312862;28;20552;-73
2021/01/05 02:28:09;;;;;;;28.97;17.03;;;4.90;83.00;;;;;;8321410;28;20535;-74
2021/01/05 02:32:36;;;;;;;23.43;14.87;;;4.90;83.10;;;;;;8319957;28;20444;-74
2021/01/05 02:37:00;;;;;;;23.30;14.37;;;4.90;83.10;;;;;;8323576;28;20449;-74
2021/01/05 02:41:23;;;;;;;25.57;14.37;;;4.80;83.10;;;;;;8313903;28;20456;-74
2021/01/05 02:45:42;;;;;;;25.60;16.10;;;4.80;83.20;;;;;;8314934;28;20461;-74
2021/01/05 02:49:46;;;;;;;23.63;14.83;;;4.80;83.30;;;;;;8319240;28;20459;-74
2021/01/05 02:54:07;;;;;;;25.80;17.20;;;4.80;83.50;;;;;;8331858;28;20876;-74
2021/01/05 02:58:17;;;;;;;29.60;16.10;;;4.80;83.50;;;;;;8317576;28;20514;-73
2021/01/05 03:02:56;;;;;;;24.53;16.67;;;4.80;83.40;;;;;;8315948;28;20449;-73
2021/01/05 03:07:06;;;;;;;24.87;16.53;;;4.80;83.50;;;;;;8317259;28;20457;-73
2021/01/05 03:11:12;;;;;;;26.03;16.70;;;4.80;83.50;;;;;;8308276;28;20549;-73
2021/01/05 03:15:23;;;;;;;24.70;15.90;;;4.80;83.70;;;;;;8320182;28;20452;-73
2021/01/05 03:19:45;;;;;;;25.57;14.77;;;4.80;83.60;;;;;;8320789;28;20452;-73
2021/01/05 03:23:48;;;;;;;27.90;15.43;;;4.90;83.40;;;;;;8321449;28;20466;-73
2021/01/05 03:27:53;;;;;;;27.07;15.47;;;4.80;83.30;;;;;;8314890;28;20978;-73
2021/01/05 03:31:59;;;;;;;23.20;15.13;;;4.80;83.20;;;;;;8313966;28;20443;-73
2021/01/05 03:36:00;;;;;;;32.70;18.67;;;4.90;83.40;;;;;;8313177;28;20530;-73
2021/01/05 03:40:01;;;;;;;27.53;15.20;;;4.90;83.50;;;;;;8300377;28;20465;-73
2021/01/05 03:44:04;;;;;;;32.20;17.70;;;4.90;83.50;;;;;;8307586;28;20508;-73
2021/01/05 03:48:09;;;;;;;24.03;15.23;;;4.90;83.30;;;;;;8317095;28;20196;-73
2021/01/05 03:52:14;;;;;;;25.97;16.27;;;4.90;83.30;;;;;;8310440;28;20458;-72
2021/01/05 03:56:15;;;;;;;29.00;17.43;;;4.90;83.20;;;;;;8299373;28;21133;-73
2021/01/05 04:00:24;;;;;;;24.60;15.23;;;4.90;83.20;;;;;;8312648;28;21438;-73
2021/01/05 04:04:28;;;;;;;30.50;17.80;;;4.90;83.20;;;;;;8312775;28;20207;-74
2021/01/05 04:08:32;;;;;;;26.33;16.10;;;4.90;83.30;;;;;;8298950;28;20450;-73
2021/01/05 04:12:33;;;;;;;28.33;18.47;;;4.90;83.30;;;;;;8309298;28;20547;-73
2021/01/05 04:16:37;;;;;;;28.93;16.10;;;4.90;83.20;;;;;;8317168;28;20450;-74
2021/01/05 04:20:48;;;;;;;30.30;16.60;;;4.90;83.10;;;;;;8313922;28;20196;-73
2021/01/05 04:24:52;;;;;;;24.03;15.47;;;4.90;83.00;;;;;;8294387;28;20540;-74
2021/01/05 04:29:04;;;;;;;25.63;15.13;;;4.90;83.00;;;;;;8303928;28;20452;-74
2021/01/05 04:33:09;;;;;;;29.73;17.77;;;4.90;83.10;;;;;;8315526;28;20846;-73
2021/01/05 04:37:10;;;;;;;27.60;17.20;;;4.90;82.60;;;;;;8306698;28;20536;-73
2021/01/05 04:41:17;;;;;;;29.20;16.03;;;4.90;82.50;;;;;;8309235;28;20453;-73
2021/01/05 04:45:23;;;;;;;30.63;17.70;;;4.90;82.50;;;;;;8312998;28;21011;-73
2021/01/05 04:49:29;;;;;;;30.80;19.17;;;4.90;82.70;;;;;;8325052;28;21153;-73
2021/01/05 04:53:38;;;;;;;25.13;16.33;;;4.90;82.80;;;;;;8310454;28;20457;-73
2021/01/05 04:57:40;;;;;;;29.37;19.13;;;4.90;82.40;;;;;;8330042;28;20473;-73
2021/01/05 05:01:42;;;;;;;30.20;17.80;;;4.90;82.50;;;;;;8305070;28;20444;-73
2021/01/05 05:05:58;;;;;;;24.93;15.80;;;4.90;82.40;;;;;;8319589;28;21076;-74
2021/01/05 05:10:21;;;;;;;34.73;17.87;;;4.90;82.60;;;;;;8311959;28;20454;-74
2021/01/05 05:14:47;;;;;;;26.33;17.13;;;4.90;82.50;;;;;;8315529;28;20452;-73
2021/01/05 05:19:06;;;;;;;30.77;17.23;;;4.90;82.40;;;;;;8279333;28;20486;-73
2021/01/05 05:23:13;;;;;;;27.10;15.97;;;4.90;82.50;;;;;;8311807;28;21209;-73
2021/01/05 05:27:21;;;;;;;22.67;15.47;;;4.90;82.70;;;;;;8307067;28;20477;-73
2021/01/05 05:31:27;;;;;;;31.63;18.37;;;4.90;82.50;;;;;;8302291;28;20476;-73
2021/01/05 05:35:59;;;;;;;27.70;15.10;;;4.90;82.40;;;;;;8308210;28;20507;-73
2021/01/05 05:40:17;;;;;;;30.40;16.40;;;4.90;82.60;;;;;;8301952;28;20454;-73
2021/01/05 05:44:24;;;;;;;29.60;17.40;;;4.90;82.80;;;;;;8308588;28;20468;-73
2021/01/05 05:48:35;;;;;;;31.57;17.43;;;4.90;82.60;;;;;;8312370;28;21132;-73
2021/01/05 05:52:45;;;;;;;25.47;17.27;;;4.90;82.80;;;;;;8309350;28;20456;-73
2021/01/05 05:56:52;;;;;;;33.57;18.43;;;5.00;82.70;;;;;;8308335;28;20962;-73
2021/01/05 06:00:58;;;;;;;27.27;16.63;;;5.00;83.00;;;;;;8308533;28;20463;-73
2021/01/05 06:04:59;;;;;;;30.07;16.80;;;5.00;83.00;;;;;;8310419;28;20466;-73
2021/01/05 06:08:59;;;;;;;32.27;17.00;;;5.00;83.10;;;;;;8300749;28;20549;-73
2021/01/05 06:13:02;;;;;;;28.47;16.27;;;5.00;83.00;;;;;;8305666;28;20477;-73
2021/01/05 06:17:03;;;;;;;30.83;16.33;;;5.00;83.10;;;;;;8311666;28;20222;-72
2021/01/05 06:21:07;;;;;;;27.53;15.80;;;5.00;83.10;;;;;;8309575;28;20447;-73
2021/01/05 06:25:16;;;;;;;32.30;16.60;;;5.00;83.00;;;;;;8308807;28;20474;-73
2021/01/05 06:29:17;;;;;;;29.27;18.17;;;4.90;83.00;;;;;;8311126;28;20449;-73
2021/01/05 06:33:21;;;;;;;28.37;17.30;;;4.90;83.20;;;;;;8313693;28;20449;-72
2021/01/05 06:37:24;;;;;;;33.77;19.47;;;4.90;83.30;;;;;;8309935;28;20465;-75
2021/01/05 06:41:25;;;;;;;36.00;19.30;;;4.90;83.30;;;;;;8311544;28;20190;-72
2021/01/05 06:45:41;;;;;;;28.30;16.37;;;4.90;83.40;;;;;;8311085;28;20468;-73
2021/01/05 06:49:43;;;;;;;38.40;18.87;;;4.90;83.30;;;;;;8311787;28;20519;-73
2021/01/05 06:53:46;;;;;;;37.03;19.40;;;4.90;83.30;;;;;;8301684;28;20456;-72
2021/01/05 06:57:47;;;;;;;28.47;17.60;;;4.90;83.20;;;;;;8299127;28;20468;-72
2021/01/05 07:02:03;;;;;;;41.80;19.43;;;4.90;83.20;;;;;;8313875;28;20449;-73
2021/01/05 07:06:10;;;;;;;30.43;17.43;;;4.90;83.20;;;;;;8308497;28;20299;-73
2021/01/05 07:10:15;;;;;;;32.07;18.73;;;4.90;83.30;;;;;;8296551;28;20436;-73
2021/01/05 07:14:21;;;;;;;42.50;20.00;;;4.90;83.40;;;;;;8322212;28;20479;-73
2021/01/05 07:18:28;;;;;;;38.00;19.30;;;4.90;83.50;;;;;;8318622;28;20448;-73
2021/01/05 07:22:29;;;;;;;34.77;20.50;;;4.90;83.60;;;;;;8311469;28;20449;-74
2021/01/05 07:26:37;;;;;;;34.10;18.97;;;4.90;83.50;;;;;;8303262;28;20472;-74
2021/01/05 07:30:37;;;;;;;28.67;16.57;;;4.90;83.40;;;;;;8313049;28;20306;-73
2021/01/05 07:34:40;;;;;;;34.20;18.33;;;4.90;83.40;;;;;;8303902;28;20447;-72
2021/01/05 07:38:41;;;;;;;37.10;20.83;;;4.90;83.70;;;;;;8312573;28;21061;-73
2021/01/05 07:42:49;;;;;;;33.30;19.10;;;4.80;83.70;;;;;;8300658;28;20520;-73
2021/01/05 07:46:58;;;;;;;44.10;20.30;;;4.80;83.90;;;;;;8316052;28;20460;-72
2021/01/05 07:51:05;;;;;;;36.70;18.60;;;4.80;83.60;;;;;;8307427;28;20583;-72
2021/01/05 07:55:16;;;;;;;39.00;19.97;;;4.80;83.60;;;;;;8320446;28;20457;-73
2021/01/05 07:59:26;;;;;;;34.60;19.87;;;4.80;84.10;;;;;;8319155;28;20505;-73
2021/01/05 08:03:30;;;;;;;34.20;16.90;;;4.80;83.60;;;;;;8306029;28;20482;-72
2021/01/05 08:07:30;;;;;;;38.77;18.43;;;4.80;83.20;;;;;;8302700;28;20453;-73
2021/01/05 08:11:44;;;;;;;36.67;18.97;;;4.80;83.10;;;;;;8313528;28;20247;-73
2021/01/05 08:15:44;;;;;;;36.30;19.03;;;4.90;83.10;;;;;;8296983;28;20481;-73
2021/01/05 08:19:54;;;;;;;35.60;18.57;;;4.90;82.90;;;;;;8312229;28;20445;-72
2021/01/05 08:23:55;;;;;;;35.97;19.47;;;4.90;83.50;;;;;;8313277;28;20612;-73
2021/01/05 08:28:01;;;;;;;33.30;18.70;;;5.00;83.00;;;;;;8314305;28;20500;-74
2021/01/05 08:32:12;;;;;;;34.87;19.13;;;5.00;83.20;;;;;;8312470;28;20449;-73
2021/01/05 08:36:26;;;;;;;41.60;20.20;;;5.10;83.30;;;;;;8281506;28;20453;-72
2021/01/05 08:40:32;;;;;;;40.13;19.23;;;5.10;83.00;;;;;;8323328;28;20480;-74
2021/01/05 08:44:33;;;;;;;31.97;15.50;;;5.20;83.10;;;;;;8320965;28;20561;-73
2021/01/05 08:48:34;;;;;;;34.90;19.43;;;5.20;83.20;;;;;;8302895;28;20453;-73
2021/01/05 08:52:38;;;;;;;36.90;18.00;;;5.30;83.60;;;;;;8307069;28;20459;-74
2021/01/05 08:56:56;;;;;;;37.37;19.10;;;5.30;82.80;;;;;;8297628;28;20208;-73
2021/01/05 09:00:58;;;;;;;34.00;17.90;;;5.30;82.80;;;;;;8314197;28;20462;-73
2021/01/05 09:05:06;;;;;;;29.90;19.83;;;5.30;82.80;;;;;;8289562;28;20470;-73
2021/01/05 09:09:08;;;;;;;36.37;17.67;;;5.40;82.40;;;;;;8314668;28;20877;-75
2021/01/05 09:13:13;;;;;;;30.20;17.53;;;5.40;82.00;;;;;;8317632;28;20452;-74
2021/01/05 09:17:17;;;;;;;36.57;18.30;;;5.50;81.80;;;;;;8282561;28;20489;-74
2021/01/05 09:21:22;;;;;;;34.20;18.07;;;5.50;81.30;;;;;;8313336;28;20512;-74
2021/01/05 09:25:23;;;;;;;37.33;18.60;;;5.50;81.50;;;;;;8301865;28;20473;-72
2021/01/05 09:29:27;;;;;;;32.57;18.50;;;5.50;81.50;;;;;;8312312;28;20458;-73
2021/01/05 09:33:30;;;;;;;35.10;18.87;;;5.60;81.30;;;;;;8300823;28;20454;-72
2021/01/05 09:37:38;;;;;;;27.30;16.77;;;5.60;80.80;;;;;;8306498;28;20961;-72
2021/01/05 09:41:42;;;;;;;33.00;17.17;;;5.80;80.70;;;;;;8326907;28;20810;-72
2021/01/05 09:45:45;;;;;;;29.17;17.47;;;5.90;80.30;;;;;;8336218;28;20481;-72
2021/01/05 09:49:48;;;;;;;31.10;16.60;;;6.00;79.60;;;;;;8331049;28;20469;-73
2021/01/05 09:53:53;;;;;;;33.67;20.57;;;5.90;79.30;;;;;;8352161;28;20499;-74
2021/01/05 09:58:03;;;;;;;32.30;17.73;;;5.90;79.40;;;;;;8335043;28;20488;-73
2021/01/05 10:02:13;;;;;;;29.23;16.73;;;5.90;79.70;;;;;;8332165;28;20902;-73
2021/01/05 10:06:28;;;;;;;32.63;18.13;;;5.90;79.80;;;;;;8311338;28;20598;-73
2021/01/05 10:10:41;;;;;;;30.80;16.20;;;5.90;79.30;;;;;;8335356;28;20478;-72
2021/01/05 10:14:51;;;;;;;35.17;19.13;;;5.80;79.30;;;;;;8330177;28;21065;-73
2021/01/05 10:18:56;;;;;;;31.10;18.03;;;5.80;79.10;;;;;;8330822;28;20456;-74
2021/01/05 10:22:57;;;;;;;34.33;17.63;;;5.80;79.60;;;;;;8330946;28;20452;-76
2021/01/05 10:27:04;;;;;;;34.00;18.87;;;5.70;79.80;;;;;;8337028;28;20618;-74
2021/01/05 10:31:08;;;;;;;37.33;20.47;;;5.70;80.00;;;;;;8330759;28;20204;-73
2021/01/05 10:35:11;;;;;;;39.33;20.20;;;5.70;80.00;;;;;;8330620;28;21082;-74
2021/01/05 10:39:17;;;;;;;34.23;17.90;;;5.70;80.40;;;;;;8318649;28;20492;-73
2021/01/05 10:43:22;;;;;;;37.47;19.80;;;5.70;80.80;;;;;;8305195;28;20526;-73
2021/01/05 10:47:26;;;;;;;40.00;20.97;;;5.70;80.80;;;;;;8315951;28;20533;-73
2021/01/05 10:51:27;;;;;;;45.93;20.67;;;5.70;81.70;;;;;;8304815;28;20497;-73
2021/01/05 10:55:33;;;;;;;32.33;17.00;;;5.70;81.00;;;;;;8305714;28;20468;-73
2021/01/05 10:59:44;;;;;;;40.97;18.13;;;5.70;82.00;;;;;;8315823;28;20571;-77
2021/01/05 11:03:47;;;;;;;36.77;21.17;;;5.60;82.00;;;;;;8309373;28;20576;-73
2021/01/05 11:07:52;;;;;;;39.10;20.23;;;5.60;82.00;;;;;;8312603;28;20484;-73
2021/01/05 11:12:04;;;;;;;34.47;16.97;;;5.60;81.90;;;;;;8310509;28;20454;-74
2021/01/05 11:16:06;;;;;;;37.87;19.07;;;5.60;81.60;;;;;;8315581;28;20450;-73
2021/01/05 11:20:09;;;;;;;32.07;19.33;;;5.60;82.20;;;;;;8313477;28;20460;-73
2021/01/05 11:24:15;;;;;;;37.13;18.60;;;5.50;82.10;;;;;;8318662;28;21010;-74
2021/01/05 11:28:15;;;;;;;37.13;18.63;;;5.50;82.00;;;;;;8308016;28;20535;-74
2021/01/05 11:32:20;;;;;;;37.17;18.30;;;5.50;81.80;;;;;;8320460;28;20453;-72
2021/01/05 11:36:28;;;;;;;42.00;17.63;;;5.50;82.30;;;;;;8320307;28;20237;-74
2021/01/05 11:40:33;;;;;;;36.60;16.17;;;5.50;82.50;;;;;;8305240;28;20568;-74
2021/01/05 11:44:34;;;;;;;38.23;17.83;;;5.60;82.50;;;;;;8313397;28;20509;-74
2021/01/05 11:48:38;;;;;;;36.90;19.00;;;5.60;82.60;;;;;;8314902;28;20451;-73
2021/01/05 11:52:40;;;;;;;36.60;17.33;;;5.60;81.90;;;;;;8313096;28;20226;-74
2021/01/05 11:56:58;;;;;;;32.33;17.60;;;5.70;81.80;;;;;;8310845;28;20489;-73
2021/01/05 12:00:59;;;;;;;35.63;17.57;;;5.70;81.80;;;;;;8312874;28;20454;-73
2021/01/05 12:05:09;;;;;;;33.07;19.47;;;5.70;82.20;;;;;;8290896;28;20923;-74
2021/01/05 12:09:11;;;;;;;38.33;18.70;;;5.80;82.40;;;;;;8315943;28;20525;-74
2021/01/05 12:13:15;;;;;;;33.93;20.53;;;5.80;81.70;;;;;;8308386;28;20947;-75
2021/01/05 12:17:20;;;;;;;31.67;19.00;;;5.90;82.00;;;;;;8296514;28;20463;-75
2021/01/05 12:21:36;;;;;;;35.77;19.50;;;5.90;82.00;;;;;;8314388;28;20535;-73
2021/01/05 12:25:39;;;;;;;64.27;20.97;;;6.00;82.00;;;;;;8299580;28;20476;-73
2021/01/05 12:29:47;;;;;;;32.70;19.60;;;6.00;82.00;;;;;;8331441;28;20449;-73
2021/01/05 12:33:50;;;;;;;36.63;19.67;;;6.00;81.80;;;;;;8309904;28;20567;-74
2021/01/05 12:37:53;;;;;;;36.63;20.37;;;6.00;81.60;;;;;;8337268;28;20449;-74
2021/01/05 12:41:56;;;;;;;36.93;19.70;;;6.00;82.10;;;;;;8331320;28;20821;-74
2021/01/05 12:45:57;;;;;;;40.63;21.07;;;6.00;82.10;;;;;;8335890;28;20477;-74
2021/01/05 12:49:57;;;;;;;42.73;23.30;;;6.00;82.00;;;;;;8322175;28;20465;-74
2021/01/05 12:53:58;;;;;;;45.30;22.37;;;6.00;81.50;;;;;;8330227;28;20822;-74
2021/01/05 12:58:00;;;;;;;40.77;23.53;;;6.10;82.10;;;;;;8330961;28;20214;-73
2021/01/05 13:02:06;;;;;;;40.07;21.67;;;6.10;82.00;;;;;;8332111;28;20475;-73
2021/01/05 13:06:08;;;;;;;43.23;23.07;;;6.20;82.10;;;;;;8322580;28;20935;-74
2021/01/05 13:10:15;;;;;;;42.43;22.70;;;6.10;82.10;;;;;;8334903;28;20912;-73
2021/01/05 13:14:18;;;;;;;37.20;20.73;;;6.20;82.00;;;;;;8327081;28;20476;-74
2021/01/05 13:18:21;;;;;;;48.50;26.10;;;6.10;82.00;;;;;;8331202;28;20447;-74
2021/01/05 13:22:24;;;;;;;41.27;22.17;;;6.00;82.20;;;;;;8318974;28;20453;-74
2021/01/05 13:26:29;;;;;;;41.53;19.10;;;6.00;82.60;;;;;;8318054;28;21856;-74
2021/01/05 13:30:31;;;;;;;46.63;22.80;;;5.90;82.50;;;;;;8330635;28;20460;-74
2021/01/05 13:34:36;;;;;;;46.40;23.83;;;5.90;83.10;;;;;;8337334;28;20810;-75
2021/01/05 13:38:40;;;;;;;49.00;24.63;;;5.80;83.20;;;;;;8333239;28;20458;-74
2021/01/05 13:42:56;;;;;;;46.70;26.53;;;5.80;83.50;;;;;;8332638;28;20543;-74
2021/01/05 13:47:04;;;;;;;50.80;23.80;;;5.80;83.70;;;;;;8315435;28;20524;-74
2021/01/05 13:51:07;;;;;;;52.13;23.33;;;5.80;84.00;;;;;;8330704;28;20457;-74
2021/01/05 13:55:09;;;;;;;45.90;23.73;;;5.80;84.10;;;;;;8329914;28;20454;-74
2021/01/05 13:59:13;;;;;;;45.53;24.67;;;5.80;84.00;;;;;;8316717;28;20892;-74
2021/01/05 14:03:14;;;;;;;48.17;24.13;;;5.70;84.00;;;;;;8312249;28;20449;-74
2021/01/05 14:07:16;;;;;;;47.47;24.00;;;5.70;84.20;;;;;;8331723;28;20504;-74
2021/01/05 14:11:21;;;;;;;42.50;22.50;;;5.60;84.60;;;;;;8332391;28;20191;-73
2021/01/05 14:15:23;;;;;;;43.27;21.07;;;5.60;84.80;;;;;;8333081;28;20458;-74
2021/01/05 14:19:28;;;;;;;41.67;21.73;;;5.70;84.60;;;;;;8325838;28;20598;-74
2021/01/05 14:23:31;;;;;;;45.57;23.77;;;5.70;84.60;;;;;;8402276;23;20495;-84
2021/01/05 14:27:34;;;;;;;42.90;21.70;;;5.70;84.80;;;;;;8324256;28;20505;-85
2021/01/05 14:31:52;;;;;;;51.00;22.73;;;5.70;85.00;;;;;;8330482;28;20456;-85
2021/01/05 14:35:52;;;;;;;44.77;24.37;;;5.70;85.20;;;;;;8322708;28;20454;-86
2021/01/05 14:39:54;;;;;;;47.53;23.97;;;5.60;85.40;;;;;;8327177;28;20434;-84
2021/01/05 14:44:03;;;;;;;51.17;24.10;;;5.60;85.50;;;;;;8290911;28;20802;-86
2021/01/05 14:48:05;;;;;;;49.37;22.63;;;5.60;85.60;;;;;;8324637;28;20517;-85
2021/01/05 14:52:20;;;;;;;51.73;24.80;;;5.60;85.70;;;;;;8320972;28;20795;-85
2021/01/05 14:56:23;;;;;;;56.40;25.77;;;5.60;85.70;;;;;;8324789;28;20446;-84
2021/01/05 15:00:34;;;;;;;52.43;26.30;;;5.60;85.80;;;;;;8343872;28;20454;-85
2021/01/05 15:04:40;;;;;;;53.97;25.10;;;5.60;85.70;;;;;;8322659;28;20472;-85
2021/01/05 15:08:45;;;;;;;58.00;24.80;;;5.60;85.80;;;;;;8320820;28;20493;-84
2021/01/05 15:12:48;;;;;;;58.70;25.17;;;5.60;85.90;;;;;;8321817;28;20453;-86
2021/01/05 15:16:49;;;;;;;56.83;26.20;;;5.60;86.00;;;;;;8319108;28;20507;-86
2021/01/05 15:20:57;;;;;;;55.50;27.03;;;5.60;86.20;;;;;;8317016;28;21257;-84
2021/01/05 15:25:00;;;;;;;59.40;27.10;;;5.60;86.30;;;;;;8293328;28;20558;-85
2021/01/05 15:29:05;;;;;;;55.77;26.43;;;5.60;86.40;;;;;;8293416;28;20424;-85
2021/01/05 15:33:06;;;;;;;55.23;25.90;;;5.60;86.50;;;;;;8287132;28;20511;-86
2021/01/05 15:37:08;;;;;;;52.93;25.90;;;5.60;86.40;;;;;;8297531;28;20486;-86
2021/01/05 15:41:09;;;;;;;57.27;27.87;;;5.60;86.40;;;;;;8273347;28;20231;-86
2021/01/05 15:45:10;;;;;;;66.63;27.00;;;5.60;86.50;;;;;;8300856;28;20485;-87
2021/01/05 15:49:16;;;;;;;48.73;23.73;;;5.60;86.50;;;;;;8296193;28;20219;-84
2021/01/05 15:53:21;;;;;;;50.77;24.63;;;5.60;86.40;;;;;;8298450;28;20512;-87
2021/01/05 15:57:29;;;;;;;54.30;24.70;;;5.60;86.50;;;;;;8296269;28;20451;-85
2021/01/05 16:01:36;;;;;;;56.23;25.20;;;5.60;86.60;;;;;;8293559;28;20512;-88
2021/01/05 16:05:44;;;;;;;53.23;25.50;;;5.50;86.50;;;;;;8294367;28;20467;-85
2021/01/05 16:09:45;;;;;;;50.80;25.00;;;5.50;86.40;;;;;;8309766;22;20500;-74
2021/01/05 16:13:52;;;;;;;49.67;23.87;;;5.50;86.30;;;;;;8260735;28;20509;-74
2021/01/05 16:17:52;;;;;;;43.87;22.83;;;5.50;86.20;;;;;;8266690;28;20202;-74
2021/01/05 16:21:56;;;;;;;48.30;22.97;;;5.50;86.20;;;;;;8265987;28;20803;-75
2021/01/05 16:26:01;;;;;;;50.40;24.50;;;5.50;85.90;;;;;;8263233;28;20216;-75
2021/01/05 16:30:01;;;;;;;45.80;24.00;;;5.50;85.80;;;;;;8257391;28;20437;-75
2021/01/05 16:34:04;;;;;;;63.17;27.60;;;5.50;85.70;;;;;;8238226;28;20459;-75
2021/01/05 16:38:08;;;;;;;44.00;21.00;;;5.50;85.60;;;;;;8258866;28;20221;-75
2021/01/05 16:42:18;;;;;;;46.73;22.17;;;5.50;85.50;;;;;;8255563;28;20434;-74
2021/01/05 16:46:20;;;;;;;40.97;20.93;;;5.50;85.60;;;;;;8257363;28;21251;-76
2021/01/05 16:50:28;;;;;;;46.57;21.80;;;5.50;85.60;;;;;;8238084;28;20465;-74
2021/01/05 16:54:36;;;;;;;39.50;21.00;;;5.50;85.40;;;;;;8257174;28;20447;-75
2021/01/05 16:58:42;;;;;;;38.50;19.50;;;5.40;85.20;;;;;;8241434;28;20454;-73
2021/01/05 17:02:44;;;;;;;37.77;20.00;;;5.50;85.30;;;;;;8233727;28;20460;-75
2021/01/05 17:07:00;;;;;;;40.47;20.77;;;5.50;85.90;;;;;;8258124;28;20541;-74
2021/01/05 17:11:01;;;;;;;42.07;22.40;;;5.50;85.40;;;;;;8241792;28;20451;-74
2021/01/05 17:15:04;;;;;;;41.57;20.40;;;5.50;85.40;;;;;;8212111;28;20466;-75
2021/01/05 17:19:04;;;;;;;37.50;19.80;;;5.50;85.40;;;;;;8245785;28;20548;-74
2021/01/05 17:23:06;;;;;;;34.23;18.80;;;5.40;85.40;;;;;;8244542;28;20828;-74
2021/01/05 17:27:17;;;;;;;37.20;18.73;;;5.40;85.50;;;;;;8249558;28;20231;-74
2021/01/05 17:31:18;;;;;;;42.13;18.77;;;5.50;85.40;;;;;;8258550;28;20450;-74
2021/01/05 17:35:29;;;;;;;38.40;18.77;;;5.50;85.30;;;;;;8251730;28;20447;-75
2021/01/05 17:39:34;;;;;;;29.27;16.93;;;5.50;85.40;;;;;;8255515;28;20209;-75
2021/01/05 17:43:35;;;;;;;29.87;18.30;;;5.50;85.40;;;;;;8239048;28;20553;-74
2021/01/05 17:47:36;;;;;;;27.77;17.07;;;5.50;85.40;;;;;;8253850;28;20471;-74
2021/01/05 17:51:37;;;;;;;31.03;17.50;;;5.50;85.40;;;;;;8249739;28;20203;-75
2021/01/05 17:55:44;;;;;;;28.30;15.77;;;5.50;85.10;;;;;;8229904;28;20451;-75
2021/01/05 17:59:45;;;;;;;24.30;15.87;;;5.50;84.80;;;;;;8255542;28;20323;-75
2021/01/05 18:03:49;;;;;;;30.23;15.90;;;5.50;84.90;;;;;;8263182;28;20491;-76
2021/01/05 18:08:00;;;;;;;32.53;16.87;;;5.50;84.90;;;;;;8263563;28;20586;-75
2021/01/05 18:12:07;;;;;;;28.27;16.23;;;5.50;85.10;;;;;;8256248;28;20966;-75
2021/01/05 18:16:09;;;;;;;29.67;17.20;;;5.50;85.20;;;;;;8251540;28;21210;-75
2021/01/05 18:20:13;;;;;;;22.47;13.67;;;5.50;85.30;;;;;;8251631;28;20942;-76
2021/01/05 18:24:15;;;;;;;22.40;14.63;;;5.50;85.30;;;;;;8254237;28;20471;-75
2021/01/05 18:28:15;;;;;;;22.43;14.67;;;5.50;85.40;;;;;;8251207;28;20531;-76
2021/01/05 18:32:18;;;;;;;25.00;15.17;;;5.50;85.20;;;;;;8253361;28;20451;-75
2021/01/05 18:36:20;;;;;;;34.37;14.70;;;5.50;85.30;;;;;;8256971;28;20437;-75
2021/01/05 18:40:28;;;;;;;25.07;14.83;;;5.50;85.30;;;;;;8251619;28;21198;-74
2021/01/05 18:44:28;;;;;;;25.13;16.00;;;5.40;85.40;;;;;;8258012;28;20488;-75
2021/01/05 18:48:35;;;;;;;31.87;18.20;;;5.50;85.40;;;;;;8233139;28;20448;-75
2021/01/05 18:52:37;;;;;;;30.70;17.70;;;5.50;85.50;;;;;;8251590;28;20188;-75
2021/01/05 18:56:39;;;;;;;34.57;18.73;;;5.40;85.50;;;;;;8245155;28;20456;-75
2021/01/05 19:00:44;;;;;;;30.63;18.57;;;5.40;85.60;;;;;;8272353;28;20531;-75
2021/01/05 19:04:45;;;;;;;37.10;18.00;;;5.40;85.70;;;;;;8238317;28;20475;-75
2021/01/05 19:08:45;;;;;;;28.57;18.27;;;5.40;85.70;;;;;;8224643;28;20572;-75
2021/01/05 19:12:46;;;;;;;34.43;20.13;;;5.40;85.70;;;;;;8243646;28;21372;-75
2021/01/05 19:16:51;;;;;;;34.17;19.83;;;5.40;85.80;;;;;;8262383;28;20211;-76
2021/01/05 19:20:53;;;;;;;34.27;18.70;;;5.40;85.90;;;;;;8256699;28;20221;-75
2021/01/05 19:25:04;;;;;;;33.90;17.83;;;5.40;86.10;;;;;;8246076;28;20568;-75
2021/01/05 19:29:05;;;;;;;31.77;17.90;;;5.30;86.10;;;;;;8257110;28;20439;-75
2021/01/05 19:33:11;;;;;;;39.80;21.10;;;5.30;86.20;;;;;;8248865;28;20453;-75
2021/01/05 19:37:13;;;;;;;33.33;21.17;;;5.30;86.30;;;;;;8233891;28;20370;-75
2021/01/05 19:41:24;;;;;;;33.43;20.00;;;5.30;86.30;;;;;;8253804;28;20457;-76
2021/01/05 19:45:41;;;;;;;32.10;19.40;;;5.40;86.40;;;;;;8258677;28;20483;-74
2021/01/05 19:49:43;;;;;;;32.10;19.13;;;5.40;86.90;;;;;;8259356;28;20481;-75
2021/01/05 19:53:45;;;;;;;32.23;19.73;;;5.40;86.20;;;;;;8261756;28;20453;-75
2021/01/05 19:57:51;;;;;;;38.40;18.97;;;5.40;86.30;;;;;;8267222;28;20960;-75
2021/01/05 20:01:56;;;;;;;34.67;19.03;;;5.40;86.20;;;;;;8258071;28;20530;-75
2021/01/05 20:05:58;;;;;;;35.43;19.63;;;5.30;86.10;;;;;;8234094;28;20492;-74
2021/01/05 20:09:59;;;;;;;32.83;18.50;;;5.40;86.20;;;;;;8212538;28;20265;-75
2021/01/05 20:14:01;;;;;;;34.20;18.90;;;5.40;86.40;;;;;;8242020;28;20517;-76
2021/01/05 20:18:02;;;;;;;36.33;19.83;;;5.40;85.70;;;;;;8250641;28;20199;-73
2021/01/05 20:22:04;;;;;;;38.17;21.63;;;5.40;85.60;;;;;;8249620;28;20470;-78
2021/01/05 20:26:21;;;;;;;37.20;21.57;;;5.40;85.70;;;;;;8248531;28;20509;-77
2021/01/05 20:30:32;;;;;;;32.13;20.50;;;5.50;85.70;;;;;;8251677;28;20441;-75
2021/01/05 20:34:33;;;;;;;43.03;21.93;;;5.50;85.70;;;;;;8250533;28;20478;-75
2021/01/05 20:38:33;;;;;;;37.20;19.63;;;5.50;85.60;;;;;;8251689;28;20447;-76
2021/01/05 20:42:34;;;;;;;36.93;21.83;;;5.50;85.40;;;;;;8251895;28;20198;-75
2021/01/05 20:46:38;;;;;;;38.70;21.10;;;5.50;85.30;;;;;;8250054;28;20216;-74
2021/01/05 20:50:41;;;;;;;33.57;18.80;;;5.50;85.20;;;;;;8249839;28;20462;-74
2021/01/05 20:54:43;;;;;;;35.60;20.50;;;5.50;85.00;;;;;;8252258;28;20454;-75
2021/01/05 20:58:49;;;;;;;39.40;22.20;;;5.40;84.70;;;;;;8272312;28;20475;-75
2021/01/05 21:02:50;;;;;;;38.03;19.83;;;5.40;84.70;;;;;;8256472;28;20920;-74